sensor_id;sensor_type;location;lat;lon;timestamp;P1;durP1;ratioP1;P2;durP2;ratioP2
13793;SDS011;31160;49.500;7.772;2024-01-30T00:02:02;15.03;;;8.00;;
13793;SDS011;31160;49.500;7.772;2024-01-30T00:04:29;26.53;;;9.83;;
13793;SDS011;31160;49.500;7.772;2024-01-30T00:06:56;23.70;;;10.33;;
13793;SDS011;31160;49.500;7.772;2024-01-30T00:09:23;25.17;;;10.00;;
13793;SDS011;31160;49.500;7.772;2024-01-30T00:11:50;24.70;;;10.27;;
13793;SDS011;31160;49.500;7.772;2024-01-30T00:14:17;19.53;;;8.27;;
13793;SDS011;31160;49.500;7.772;2024-01-30T00:16:43;21.03;;;9.30;;
13793;SDS011;31160;49.500;7.772;2024-01-30T00:19:10;21.97;;;8.40;;
13793;SDS011;31160;49.500;7.772;2024-01-30T00:21:38;20.37;;;8.03;;
13793;SDS011;31160;49.500;7.772;2024-01-30T00:24:04;13.53;;;7.77;;
13793;SDS011;31160;49.500;7.772;2024-01-30T00:26:31;15.73;;;7.47;;
13793;SDS011;31160;49.500;7.772;2024-01-30T00:28:58;16.57;;;7.63;;
13793;SDS011;31160;49.500;7.772;2024-01-30T00:31:25;13.10;;;6.00;;
13793;SDS011;31160;49.500;7.772;2024-01-30T00:33:52;11.93;;;6.33;;
13793;SDS011;31160;49.500;7.772;2024-01-30T00:36:19;11.90;;;7.03;;
13793;SDS011;31160;49.500;7.772;2024-01-30T00:38:45;14.70;;;7.40;;
13793;SDS011;31160;49.500;7.772;2024-01-30T00:41:12;11.33;;;5.40;;
13793;SDS011;31160;49.500;7.772;2024-01-30T00:43:39;9.47;;;5.90;;
13793;SDS011;31160;49.500;7.772;2024-01-30T00:46:06;10.17;;;5.87;;
13793;SDS011;31160;49.500;7.772;2024-01-30T00:48:32;8.30;;;5.40;;
13793;SDS011;31160;49.500;7.772;2024-01-30T00:50:59;12.00;;;5.60;;
13793;SDS011;31160;49.500;7.772;2024-01-30T00:53:26;8.50;;;5.03;;
13793;SDS011;31160;49.500;7.772;2024-01-30T00:55:52;8.63;;;5.00;;
13793;SDS011;31160;49.500;7.772;2024-01-30T00:58:19;8.40;;;5.10;;
13793;SDS011;31160;49.500;7.772;2024-01-30T01:00:46;10.67;;;4.63;;
13793;SDS011;31160;49.500;7.772;2024-01-30T01:03:13;7.93;;;5.23;;
13793;SDS011;31160;49.500;7.772;2024-01-30T01:05:40;7.17;;;5.07;;
13793;SDS011;31160;49.500;7.772;2024-01-30T01:08:07;7.00;;;4.93;;
13793;SDS011;31160;49.500;7.772;2024-01-30T01:10:35;6.37;;;4.70;;
13793;SDS011;31160;49.500;7.772;2024-01-30T01:13:02;6.80;;;4.60;;
13793;SDS011;31160;49.500;7.772;2024-01-30T01:15:28;6.17;;;4.50;;
13793;SDS011;31160;49.500;7.772;2024-01-30T01:17:56;7.10;;;4.87;;
13793;SDS011;31160;49.500;7.772;2024-01-30T01:20:23;6.90;;;4.63;;
13793;SDS011;31160;49.500;7.772;2024-01-30T01:22:49;6.80;;;4.50;;
13793;SDS011;31160;49.500;7.772;2024-01-30T01:25:16;8.33;;;5.23;;
13793;SDS011;31160;49.500;7.772;2024-01-30T01:27:43;7.33;;;4.47;;
13793;SDS011;31160;49.500;7.772;2024-01-30T01:30:17;8.23;;;4.77;;
13793;SDS011;31160;49.500;7.772;2024-01-30T01:32:48;7.37;;;4.50;;
13793;SDS011;31160;49.500;7.772;2024-01-30T01:35:21;7.47;;;4.60;;
13793;SDS011;31160;49.500;7.772;2024-01-30T01:37:51;7.30;;;4.20;;
13793;SDS011;31160;49.500;7.772;2024-01-30T01:40:24;7.17;;;4.60;;
13793;SDS011;31160;49.500;7.772;2024-01-30T01:42:52;8.00;;;4.10;;
13793;SDS011;31160;49.500;7.772;2024-01-30T01:45:20;5.97;;;4.27;;
13793;SDS011;31160;49.500;7.772;2024-01-30T01:47:49;6.43;;;4.00;;
13793;SDS011;31160;49.500;7.772;2024-01-30T01:50:18;5.97;;;4.00;;
13793;SDS011;31160;49.500;7.772;2024-01-30T01:52:47;7.53;;;4.37;;
13793;SDS011;31160;49.500;7.772;2024-01-30T01:55:17;6.57;;;4.37;;
13793;SDS011;31160;49.500;7.772;2024-01-30T01:57:48;6.90;;;3.80;;
13793;SDS011;31160;49.500;7.772;2024-01-30T02:00:15;5.30;;;3.93;;
13793;SDS011;31160;49.500;7.772;2024-01-30T02:02:45;6.23;;;4.27;;
13793;SDS011;31160;49.500;7.772;2024-01-30T02:05:12;6.40;;;3.87;;
13793;SDS011;31160;49.500;7.772;2024-01-30T02:07:40;7.30;;;4.10;;
13793;SDS011;31160;49.500;7.772;2024-01-30T02:10:08;7.87;;;4.07;;
13793;SDS011;31160;49.500;7.772;2024-01-30T02:12:36;5.27;;;3.83;;
13793;SDS011;31160;49.500;7.772;2024-01-30T02:15:03;8.60;;;5.00;;
13793;SDS011;31160;49.500;7.772;2024-01-30T02:17:31;5.33;;;3.97;;
13793;SDS011;31160;49.500;7.772;2024-01-30T02:19:57;6.20;;;4.03;;
13793;SDS011;31160;49.500;7.772;2024-01-30T02:22:25;7.47;;;4.13;;
13793;SDS011;31160;49.500;7.772;2024-01-30T02:24:52;7.00;;;4.50;;
13793;SDS011;31160;49.500;7.772;2024-01-30T02:27:18;6.70;;;4.57;;
13793;SDS011;31160;49.500;7.772;2024-01-30T02:29:45;9.67;;;5.33;;
13793;SDS011;31160;49.500;7.772;2024-01-30T02:32:12;7.40;;;4.93;;
13793;SDS011;31160;49.500;7.772;2024-01-30T02:34:39;7.17;;;4.50;;
13793;SDS011;31160;49.500;7.772;2024-01-30T02:37:06;8.87;;;3.90;;
13793;SDS011;31160;49.500;7.772;2024-01-30T02:39:33;7.63;;;4.67;;
13793;SDS011;31160;49.500;7.772;2024-01-30T02:41:59;8.80;;;5.57;;
13793;SDS011;31160;49.500;7.772;2024-01-30T02:44:26;7.97;;;5.80;;
13793;SDS011;31160;49.500;7.772;2024-01-30T02:46:53;14.77;;;5.07;;
13793;SDS011;31160;49.500;7.772;2024-01-30T02:49:20;8.30;;;5.10;;
13793;SDS011;31160;49.500;7.772;2024-01-30T02:51:48;7.20;;;4.67;;
13793;SDS011;31160;49.500;7.772;2024-01-30T02:54:15;9.17;;;5.57;;
13793;SDS011;31160;49.500;7.772;2024-01-30T02:56:41;7.53;;;4.50;;
13793;SDS011;31160;49.500;7.772;2024-01-30T02:59:08;8.53;;;4.53;;
13793;SDS011;31160;49.500;7.772;2024-01-30T03:01:42;9.70;;;5.40;;
13793;SDS011;31160;49.500;7.772;2024-01-30T03:04:10;7.33;;;4.77;;
13793;SDS011;31160;49.500;7.772;2024-01-30T03:06:37;9.10;;;4.77;;
13793;SDS011;31160;49.500;7.772;2024-01-30T03:09:04;7.40;;;4.30;;
13793;SDS011;31160;49.500;7.772;2024-01-30T03:11:31;6.90;;;4.43;;
13793;SDS011;31160;49.500;7.772;2024-01-30T03:13:58;8.87;;;4.93;;
13793;SDS011;31160;49.500;7.772;2024-01-30T03:16:25;5.90;;;4.13;;
13793;SDS011;31160;49.500;7.772;2024-01-30T03:18:52;7.00;;;4.50;;
13793;SDS011;31160;49.500;7.772;2024-01-30T03:21:19;9.40;;;4.80;;
13793;SDS011;31160;49.500;7.772;2024-01-30T03:23:45;8.23;;;4.77;;
13793;SDS011;31160;49.500;7.772;2024-01-30T03:26:12;9.47;;;5.20;;
13793;SDS011;31160;49.500;7.772;2024-01-30T03:28:40;9.53;;;5.17;;
13793;SDS011;31160;49.500;7.772;2024-01-30T03:31:07;9.73;;;4.83;;
13793;SDS011;31160;49.500;7.772;2024-01-30T03:33:34;7.17;;;4.70;;
13793;SDS011;31160;49.500;7.772;2024-01-30T03:36:03;9.03;;;4.87;;
13793;SDS011;31160;49.500;7.772;2024-01-30T03:38:30;10.77;;;5.07;;
13793;SDS011;31160;49.500;7.772;2024-01-30T03:40:59;9.40;;;4.20;;
13793;SDS011;31160;49.500;7.772;2024-01-30T03:43:26;8.90;;;5.30;;
13793;SDS011;31160;49.500;7.772;2024-01-30T03:45:53;9.87;;;5.27;;
13793;SDS011;31160;49.500;7.772;2024-01-30T03:48:20;9.97;;;4.83;;
13793;SDS011;31160;49.500;7.772;2024-01-30T03:50:47;10.90;;;6.00;;
13793;SDS011;31160;49.500;7.772;2024-01-30T03:53:14;8.50;;;5.50;;
13793;SDS011;31160;49.500;7.772;2024-01-30T03:55:41;7.80;;;4.80;;
13793;SDS011;31160;49.500;7.772;2024-01-30T03:58:07;8.67;;;4.70;;
13793;SDS011;31160;49.500;7.772;2024-01-30T04:00:34;9.50;;;5.17;;
13793;SDS011;31160;49.500;7.772;2024-01-30T04:03:01;11.13;;;5.57;;
13793;SDS011;31160;49.500;7.772;2024-01-30T04:05:28;9.77;;;6.23;;
13793;SDS011;31160;49.500;7.772;2024-01-30T04:07:55;11.40;;;6.17;;
13793;SDS011;31160;49.500;7.772;2024-01-30T04:10:23;10.87;;;5.87;;
13793;SDS011;31160;49.500;7.772;2024-01-30T04:12:51;10.80;;;6.00;;
13793;SDS011;31160;49.500;7.772;2024-01-30T04:15:18;17.13;;;6.43;;
13793;SDS011;31160;49.500;7.772;2024-01-30T04:17:44;12.27;;;6.53;;
13793;SDS011;31160;49.500;7.772;2024-01-30T04:20:15;11.30;;;6.20;;
13793;SDS011;31160;49.500;7.772;2024-01-30T04:22:44;8.90;;;5.50;;
13793;SDS011;31160;49.500;7.772;2024-01-30T04:25:12;10.73;;;5.97;;
13793;SDS011;31160;49.500;7.772;2024-01-30T04:27:40;16.33;;;8.47;;
13793;SDS011;31160;49.500;7.772;2024-01-30T04:30:07;17.53;;;9.20;;
13793;SDS011;31160;49.500;7.772;2024-01-30T04:32:34;23.53;;;11.73;;
13793;SDS011;31160;49.500;7.772;2024-01-30T04:35:01;25.30;;;12.33;;
13793;SDS011;31160;49.500;7.772;2024-01-30T04:37:33;22.70;;;11.57;;
13793;SDS011;31160;49.500;7.772;2024-01-30T04:39:59;20.13;;;11.53;;
13793;SDS011;31160;49.500;7.772;2024-01-30T04:42:26;21.27;;;10.70;;
13793;SDS011;31160;49.500;7.772;2024-01-30T04:44:53;19.00;;;10.00;;
13793;SDS011;31160;49.500;7.772;2024-01-30T04:47:19;22.70;;;10.73;;
13793;SDS011;31160;49.500;7.772;2024-01-30T04:49:46;23.60;;;10.90;;
13793;SDS011;31160;49.500;7.772;2024-01-30T04:52:13;22.57;;;11.03;;
13793;SDS011;31160;49.500;7.772;2024-01-30T04:54:40;17.77;;;9.30;;
13793;SDS011;31160;49.500;7.772;2024-01-30T04:57:07;19.27;;;9.17;;
13793;SDS011;31160;49.500;7.772;2024-01-30T04:59:35;16.63;;;10.40;;
13793;SDS011;31160;49.500;7.772;2024-01-30T05:02:02;14.67;;;8.30;;
13793;SDS011;31160;49.500;7.772;2024-01-30T05:04:30;16.27;;;8.90;;
13793;SDS011;31160;49.500;7.772;2024-01-30T05:06:56;14.30;;;8.00;;
13793;SDS011;31160;49.500;7.772;2024-01-30T05:09:23;14.33;;;8.70;;
13793;SDS011;31160;49.500;7.772;2024-01-30T05:11:50;14.63;;;8.30;;
13793;SDS011;31160;49.500;7.772;2024-01-30T05:14:17;13.33;;;7.23;;
13793;SDS011;31160;49.500;7.772;2024-01-30T05:16:44;14.63;;;7.03;;
13793;SDS011;31160;49.500;7.772;2024-01-30T05:19:13;12.50;;;7.07;;
13793;SDS011;31160;49.500;7.772;2024-01-30T05:21:41;16.10;;;7.50;;
13793;SDS011;31160;49.500;7.772;2024-01-30T05:24:08;11.30;;;7.47;;
13793;SDS011;31160;49.500;7.772;2024-01-30T05:26:36;11.60;;;7.00;;
13793;SDS011;31160;49.500;7.772;2024-01-30T05:29:03;11.90;;;6.93;;
13793;SDS011;31160;49.500;7.772;2024-01-30T05:31:30;13.00;;;6.60;;
13793;SDS011;31160;49.500;7.772;2024-01-30T05:33:57;12.07;;;6.13;;
13793;SDS011;31160;49.500;7.772;2024-01-30T05:36:24;10.73;;;7.00;;
13793;SDS011;31160;49.500;7.772;2024-01-30T05:38:51;12.20;;;7.30;;
13793;SDS011;31160;49.500;7.772;2024-01-30T05:41:18;12.50;;;7.20;;
13793;SDS011;31160;49.500;7.772;2024-01-30T05:43:45;11.77;;;7.10;;
13793;SDS011;31160;49.500;7.772;2024-01-30T05:46:12;12.60;;;7.47;;
13793;SDS011;31160;49.500;7.772;2024-01-30T05:48:39;9.87;;;5.63;;
13793;SDS011;31160;49.500;7.772;2024-01-30T05:51:06;16.87;;;7.93;;
13793;SDS011;31160;49.500;7.772;2024-01-30T05:53:34;9.23;;;7.00;;
13793;SDS011;31160;49.500;7.772;2024-01-30T05:56:01;13.87;;;8.57;;
13793;SDS011;31160;49.500;7.772;2024-01-30T05:58:29;14.37;;;8.50;;
13793;SDS011;31160;49.500;7.772;2024-01-30T06:00:57;13.70;;;8.07;;
13793;SDS011;31160;49.500;7.772;2024-01-30T06:03:24;13.50;;;8.90;;
13793;SDS011;31160;49.500;7.772;2024-01-30T06:05:51;15.13;;;9.43;;
13793;SDS011;31160;49.500;7.772;2024-01-30T06:08:18;17.47;;;10.73;;
13793;SDS011;31160;49.500;7.772;2024-01-30T06:10:45;19.13;;;12.03;;
13793;SDS011;31160;49.500;7.772;2024-01-30T06:13:13;22.03;;;13.07;;
13793;SDS011;31160;49.500;7.772;2024-01-30T06:15:40;25.17;;;15.23;;
13793;SDS011;31160;49.500;7.772;2024-01-30T06:18:07;34.00;;;21.37;;
13793;SDS011;31160;49.500;7.772;2024-01-30T06:20:35;30.60;;;17.67;;
13793;SDS011;31160;49.500;7.772;2024-01-30T06:23:01;21.43;;;14.03;;
13793;SDS011;31160;49.500;7.772;2024-01-30T06:25:28;26.17;;;14.80;;
13793;SDS011;31160;49.500;7.772;2024-01-30T06:27:55;21.77;;;13.63;;
13793;SDS011;31160;49.500;7.772;2024-01-30T06:30:22;18.43;;;12.43;;
13793;SDS011;31160;49.500;7.772;2024-01-30T06:32:48;15.27;;;10.90;;
13793;SDS011;31160;49.500;7.772;2024-01-30T06:35:15;16.40;;;10.53;;
13793;SDS011;31160;49.500;7.772;2024-01-30T06:37:43;14.53;;;10.23;;
13793;SDS011;31160;49.500;7.772;2024-01-30T06:40:10;17.13;;;10.90;;
13793;SDS011;31160;49.500;7.772;2024-01-30T06:42:37;15.23;;;9.10;;
13793;SDS011;31160;49.500;7.772;2024-01-30T06:45:04;12.63;;;8.03;;
13793;SDS011;31160;49.500;7.772;2024-01-30T06:47:31;18.00;;;9.33;;
13793;SDS011;31160;49.500;7.772;2024-01-30T06:49:58;15.83;;;8.57;;
13793;SDS011;31160;49.500;7.772;2024-01-30T06:52:25;20.53;;;9.60;;
13793;SDS011;31160;49.500;7.772;2024-01-30T06:54:52;22.00;;;10.90;;
13793;SDS011;31160;49.500;7.772;2024-01-30T06:57:19;20.07;;;10.13;;
13793;SDS011;31160;49.500;7.772;2024-01-30T06:59:45;13.97;;;8.90;;
13793;SDS011;31160;49.500;7.772;2024-01-30T07:02:13;15.60;;;8.87;;
13793;SDS011;31160;49.500;7.772;2024-01-30T07:04:40;15.80;;;10.57;;
13793;SDS011;31160;49.500;7.772;2024-01-30T07:07:12;15.90;;;9.97;;
13793;SDS011;31160;49.500;7.772;2024-01-30T07:09:41;15.00;;;9.00;;
13793;SDS011;31160;49.500;7.772;2024-01-30T07:12:08;13.10;;;8.30;;
13793;SDS011;31160;49.500;7.772;2024-01-30T07:14:35;13.15;;;10.00;;
13793;SDS011;31160;49.500;7.772;2024-01-30T07:17:02;13.97;;;8.27;;
13793;SDS011;31160;49.500;7.772;2024-01-30T07:19:28;11.30;;;7.97;;
13793;SDS011;31160;49.500;7.772;2024-01-30T07:21:56;10.87;;;7.57;;
13793;SDS011;31160;49.500;7.772;2024-01-30T07:24:22;12.40;;;8.33;;
13793;SDS011;31160;49.500;7.772;2024-01-30T07:26:49;13.40;;;8.23;;
13793;SDS011;31160;49.500;7.772;2024-01-30T07:29:16;14.13;;;7.60;;
13793;SDS011;31160;49.500;7.772;2024-01-30T07:31:43;16.67;;;9.10;;
13793;SDS011;31160;49.500;7.772;2024-01-30T07:34:10;17.23;;;9.43;;
13793;SDS011;31160;49.500;7.772;2024-01-30T07:36:37;18.00;;;8.77;;
13793;SDS011;31160;49.500;7.772;2024-01-30T07:39:05;16.27;;;8.93;;
13793;SDS011;31160;49.500;7.772;2024-01-30T07:41:31;16.07;;;8.50;;
13793;SDS011;31160;49.500;7.772;2024-01-30T07:43:58;16.23;;;8.53;;
13793;SDS011;31160;49.500;7.772;2024-01-30T07:46:25;14.47;;;8.57;;
13793;SDS011;31160;49.500;7.772;2024-01-30T07:48:52;15.87;;;8.83;;
13793;SDS011;31160;49.500;7.772;2024-01-30T07:51:20;18.03;;;9.53;;
13793;SDS011;31160;49.500;7.772;2024-01-30T07:53:47;19.37;;;10.80;;
13793;SDS011;31160;49.500;7.772;2024-01-30T07:56:14;17.47;;;10.57;;
13793;SDS011;31160;49.500;7.772;2024-01-30T07:58:42;20.33;;;11.27;;
13793;SDS011;31160;49.500;7.772;2024-01-30T08:01:09;16.13;;;10.63;;
13793;SDS011;31160;49.500;7.772;2024-01-30T08:03:35;24.20;;;13.43;;
13793;SDS011;31160;49.500;7.772;2024-01-30T08:06:03;21.90;;;12.50;;
13793;SDS011;31160;49.500;7.772;2024-01-30T08:08:30;21.17;;;12.43;;
13793;SDS011;31160;49.500;7.772;2024-01-30T08:10:57;16.57;;;10.50;;
13793;SDS011;31160;49.500;7.772;2024-01-30T08:13:23;17.63;;;10.83;;
13793;SDS011;31160;49.500;7.772;2024-01-30T08:15:50;20.77;;;11.00;;
13793;SDS011;31160;49.500;7.772;2024-01-30T08:18:17;18.50;;;10.33;;
13793;SDS011;31160;49.500;7.772;2024-01-30T08:20:44;20.63;;;10.80;;
13793;SDS011;31160;49.500;7.772;2024-01-30T08:23:12;19.03;;;10.30;;
13793;SDS011;31160;49.500;7.772;2024-01-30T08:25:39;19.20;;;11.20;;
13793;SDS011;31160;49.500;7.772;2024-01-30T08:28:05;17.87;;;11.87;;
13793;SDS011;31160;49.500;7.772;2024-01-30T08:30:33;16.97;;;10.77;;
13793;SDS011;31160;49.500;7.772;2024-01-30T08:33:00;18.50;;;10.77;;
13793;SDS011;31160;49.500;7.772;2024-01-30T08:35:27;16.90;;;9.07;;
13793;SDS011;31160;49.500;7.772;2024-01-30T08:37:54;15.30;;;10.03;;
13793;SDS011;31160;49.500;7.772;2024-01-30T08:40:21;18.77;;;10.97;;
13793;SDS011;31160;49.500;7.772;2024-01-30T08:42:47;18.07;;;10.57;;
13793;SDS011;31160;49.500;7.772;2024-01-30T08:45:14;17.93;;;11.93;;
13793;SDS011;31160;49.500;7.772;2024-01-30T08:47:41;22.50;;;12.40;;
13793;SDS011;31160;49.500;7.772;2024-01-30T08:50:08;23.53;;;13.20;;
13793;SDS011;31160;49.500;7.772;2024-01-30T08:52:35;18.77;;;10.33;;
13793;SDS011;31160;49.500;7.772;2024-01-30T08:55:02;19.70;;;11.27;;
13793;SDS011;31160;49.500;7.772;2024-01-30T08:57:29;19.33;;;12.47;;
13793;SDS011;31160;49.500;7.772;2024-01-30T08:59:56;25.93;;;12.87;;
13793;SDS011;31160;49.500;7.772;2024-01-30T09:02:23;24.07;;;13.20;;
13793;SDS011;31160;49.500;7.772;2024-01-30T09:04:50;19.57;;;12.07;;
13793;SDS011;31160;49.500;7.772;2024-01-30T09:07:17;20.23;;;12.00;;
13793;SDS011;31160;49.500;7.772;2024-01-30T09:09:44;30.47;;;16.07;;
13793;SDS011;31160;49.500;7.772;2024-01-30T09:12:11;24.13;;;13.33;;
13793;SDS011;31160;49.500;7.772;2024-01-30T09:14:39;23.17;;;13.50;;
13793;SDS011;31160;49.500;7.772;2024-01-30T09:17:07;23.93;;;13.33;;
13793;SDS011;31160;49.500;7.772;2024-01-30T09:19:34;22.30;;;12.43;;
13793;SDS011;31160;49.500;7.772;2024-01-30T09:22:02;22.10;;;10.97;;
13793;SDS011;31160;49.500;7.772;2024-01-30T09:24:29;18.87;;;11.53;;
13793;SDS011;31160;49.500;7.772;2024-01-30T09:26:56;24.23;;;13.47;;
13793;SDS011;31160;49.500;7.772;2024-01-30T09:29:23;25.80;;;14.70;;
13793;SDS011;31160;49.500;7.772;2024-01-30T09:31:50;27.80;;;14.47;;
13793;SDS011;31160;49.500;7.772;2024-01-30T09:34:17;27.20;;;16.00;;
13793;SDS011;31160;49.500;7.772;2024-01-30T09:36:44;31.13;;;16.57;;
13793;SDS011;31160;49.500;7.772;2024-01-30T09:39:11;26.70;;;14.80;;
13793;SDS011;31160;49.500;7.772;2024-01-30T09:41:41;27.57;;;15.07;;
13793;SDS011;31160;49.500;7.772;2024-01-30T09:44:15;29.23;;;14.60;;
13793;SDS011;31160;49.500;7.772;2024-01-30T09:46:42;32.07;;;16.27;;
13793;SDS011;31160;49.500;7.772;2024-01-30T09:49:11;23.10;;;13.27;;
13793;SDS011;31160;49.500;7.772;2024-01-30T09:51:42;25.03;;;13.40;;
13793;SDS011;31160;49.500;7.772;2024-01-30T09:54:10;20.90;;;12.57;;
13793;SDS011;31160;49.500;7.772;2024-01-30T09:56:40;19.27;;;11.27;;
13793;SDS011;31160;49.500;7.772;2024-01-30T09:59:07;21.20;;;12.30;;
13793;SDS011;31160;49.500;7.772;2024-01-30T10:01:34;19.33;;;12.37;;
13793;SDS011;31160;49.500;7.772;2024-01-30T10:04:03;18.33;;;11.17;;
13793;SDS011;31160;49.500;7.772;2024-01-30T10:06:31;17.87;;;11.03;;
13793;SDS011;31160;49.500;7.772;2024-01-30T10:08:57;21.30;;;11.83;;
13793;SDS011;31160;49.500;7.772;2024-01-30T10:11:24;20.87;;;11.37;;
13793;SDS011;31160;49.500;7.772;2024-01-30T10:13:51;23.20;;;11.97;;
13793;SDS011;31160;49.500;7.772;2024-01-30T10:16:18;22.50;;;12.50;;
13793;SDS011;31160;49.500;7.772;2024-01-30T10:18:45;20.53;;;11.63;;
13793;SDS011;31160;49.500;7.772;2024-01-30T10:21:12;16.63;;;9.43;;
13793;SDS011;31160;49.500;7.772;2024-01-30T10:23:39;18.17;;;10.47;;
13793;SDS011;31160;49.500;7.772;2024-01-30T10:26:07;17.63;;;9.60;;
13793;SDS011;31160;49.500;7.772;2024-01-30T10:28:34;20.13;;;10.50;;
13793;SDS011;31160;49.500;7.772;2024-01-30T10:31:01;14.30;;;9.60;;
13793;SDS011;31160;49.500;7.772;2024-01-30T10:33:32;14.60;;;9.77;;
13793;SDS011;31160;49.500;7.772;2024-01-30T10:36:03;17.10;;;9.40;;
13793;SDS011;31160;49.500;7.772;2024-01-30T10:38:32;14.83;;;8.53;;
13793;SDS011;31160;49.500;7.772;2024-01-30T10:41:00;10.73;;;7.50;;
13793;SDS011;31160;49.500;7.772;2024-01-30T10:43:36;20.23;;;9.70;;
13793;SDS011;31160;49.500;7.772;2024-01-30T10:46:11;13.33;;;7.80;;
13793;SDS011;31160;49.500;7.772;2024-01-30T10:48:48;14.03;;;8.47;;
13793;SDS011;31160;49.500;7.772;2024-01-30T10:51:22;20.63;;;9.40;;
13793;SDS011;31160;49.500;7.772;2024-01-30T10:53:52;16.33;;;8.90;;
13793;SDS011;31160;49.500;7.772;2024-01-30T10:56:23;18.63;;;9.13;;
13793;SDS011;31160;49.500;7.772;2024-01-30T10:58:51;17.53;;;8.37;;
13793;SDS011;31160;49.500;7.772;2024-01-30T11:01:19;14.13;;;7.43;;
13793;SDS011;31160;49.500;7.772;2024-01-30T11:03:50;11.73;;;7.17;;
13793;SDS011;31160;49.500;7.772;2024-01-30T11:06:18;12.30;;;7.33;;
13793;SDS011;31160;49.500;7.772;2024-01-30T11:09:04;11.37;;;7.23;;
13793;SDS011;31160;49.500;7.772;2024-01-30T11:11:49;9.57;;;6.27;;
13793;SDS011;31160;49.500;7.772;2024-01-30T11:14:16;12.90;;;5.90;;
13793;SDS011;31160;49.500;7.772;2024-01-30T11:16:50;11.33;;;6.33;;
13793;SDS011;31160;49.500;7.772;2024-01-30T11:19:23;11.67;;;6.70;;
13793;SDS011;31160;49.500;7.772;2024-01-30T11:21:52;13.20;;;6.90;;
13793;SDS011;31160;49.500;7.772;2024-01-30T11:24:20;9.33;;;6.30;;
13793;SDS011;31160;49.500;7.772;2024-01-30T11:26:48;11.87;;;7.40;;
13793;SDS011;31160;49.500;7.772;2024-01-30T11:29:17;12.17;;;6.97;;
13793;SDS011;31160;49.500;7.772;2024-01-30T11:31:57;10.60;;;7.03;;
13793;SDS011;31160;49.500;7.772;2024-01-30T11:34:25;12.77;;;7.73;;
13793;SDS011;31160;49.500;7.772;2024-01-30T11:36:52;10.80;;;6.93;;
13793;SDS011;31160;49.500;7.772;2024-01-30T11:39:25;10.17;;;7.20;;
13793;SDS011;31160;49.500;7.772;2024-01-30T11:41:53;10.33;;;6.47;;
13793;SDS011;31160;49.500;7.772;2024-01-30T11:44:21;10.50;;;5.90;;
13793;SDS011;31160;49.500;7.772;2024-01-30T11:46:48;8.93;;;6.13;;
13793;SDS011;31160;49.500;7.772;2024-01-30T11:49:16;10.77;;;6.50;;
13793;SDS011;31160;49.500;7.772;2024-01-30T11:51:46;13.60;;;7.13;;
13793;SDS011;31160;49.500;7.772;2024-01-30T11:54:15;9.97;;;5.90;;
13793;SDS011;31160;49.500;7.772;2024-01-30T11:56:42;7.77;;;5.50;;
13793;SDS011;31160;49.500;7.772;2024-01-30T11:59:09;9.17;;;5.27;;
13793;SDS011;31160;49.500;7.772;2024-01-30T12:01:36;9.13;;;5.50;;
13793;SDS011;31160;49.500;7.772;2024-01-30T12:04:03;7.57;;;5.20;;
13793;SDS011;31160;49.500;7.772;2024-01-30T12:06:35;9.97;;;5.53;;
13793;SDS011;31160;49.500;7.772;2024-01-30T12:09:02;7.70;;;5.67;;
13793;SDS011;31160;49.500;7.772;2024-01-30T12:11:43;13.30;;;6.57;;
13793;SDS011;31160;49.500;7.772;2024-01-30T12:14:11;10.97;;;7.40;;
13793;SDS011;31160;49.500;7.772;2024-01-30T12:16:38;14.40;;;7.57;;
13793;SDS011;31160;49.500;7.772;2024-01-30T12:19:05;11.37;;;6.23;;
13793;SDS011;31160;49.500;7.772;2024-01-30T12:21:33;11.33;;;6.57;;
13793;SDS011;31160;49.500;7.772;2024-01-30T12:24:00;12.23;;;6.43;;
13793;SDS011;31160;49.500;7.772;2024-01-30T12:26:27;13.00;;;6.57;;
13793;SDS011;31160;49.500;7.772;2024-01-30T12:28:55;10.57;;;6.63;;
13793;SDS011;31160;49.500;7.772;2024-01-30T12:31:25;10.33;;;5.43;;
13793;SDS011;31160;49.500;7.772;2024-01-30T12:33:55;10.67;;;6.20;;
13793;SDS011;31160;49.500;7.772;2024-01-30T12:36:24;11.80;;;6.17;;
13793;SDS011;31160;49.500;7.772;2024-01-30T12:38:52;8.47;;;5.33;;
13793;SDS011;31160;49.500;7.772;2024-01-30T12:41:19;7.23;;;5.87;;
13793;SDS011;31160;49.500;7.772;2024-01-30T12:43:46;10.53;;;6.03;;
13793;SDS011;31160;49.500;7.772;2024-01-30T12:46:16;7.80;;;5.70;;
13793;SDS011;31160;49.500;7.772;2024-01-30T12:48:43;8.13;;;5.80;;
13793;SDS011;31160;49.500;7.772;2024-01-30T12:51:10;8.87;;;5.07;;
13793;SDS011;31160;49.500;7.772;2024-01-30T12:53:37;8.63;;;5.63;;
13793;SDS011;31160;49.500;7.772;2024-01-30T12:56:04;30.77;;;6.70;;
13793;SDS011;31160;49.500;7.772;2024-01-30T12:58:31;12.13;;;5.50;;
13793;SDS011;31160;49.500;7.772;2024-01-30T13:00:57;8.07;;;5.17;;
13793;SDS011;31160;49.500;7.772;2024-01-30T13:03:25;7.80;;;4.70;;
13793;SDS011;31160;49.500;7.772;2024-01-30T13:05:51;9.67;;;5.90;;
13793;SDS011;31160;49.500;7.772;2024-01-30T13:08:19;8.97;;;5.37;;
13793;SDS011;31160;49.500;7.772;2024-01-30T13:10:45;7.17;;;4.50;;
13793;SDS011;31160;49.500;7.772;2024-01-30T13:13:15;9.80;;;5.00;;
13793;SDS011;31160;49.500;7.772;2024-01-30T13:15:46;17.37;;;4.90;;
13793;SDS011;31160;49.500;7.772;2024-01-30T13:18:14;10.00;;;4.70;;
13793;SDS011;31160;49.500;7.772;2024-01-30T13:20:41;9.73;;;5.50;;
13793;SDS011;31160;49.500;7.772;2024-01-30T13:23:08;7.00;;;4.57;;
13793;SDS011;31160;49.500;7.772;2024-01-30T13:25:35;6.70;;;4.70;;
13793;SDS011;31160;49.500;7.772;2024-01-30T13:28:02;10.07;;;4.90;;
13793;SDS011;31160;49.500;7.772;2024-01-30T13:30:30;7.90;;;4.60;;
13793;SDS011;31160;49.500;7.772;2024-01-30T13:32:56;7.93;;;4.67;;
13793;SDS011;31160;49.500;7.772;2024-01-30T13:35:25;11.13;;;4.53;;
13793;SDS011;31160;49.500;7.772;2024-01-30T13:37:51;7.50;;;4.57;;
13793;SDS011;31160;49.500;7.772;2024-01-30T13:40:18;7.50;;;4.20;;
13793;SDS011;31160;49.500;7.772;2024-01-30T13:42:45;5.83;;;3.87;;
13793;SDS011;31160;49.500;7.772;2024-01-30T13:45:12;8.50;;;4.00;;
13793;SDS011;31160;49.500;7.772;2024-01-30T13:47:39;6.20;;;4.00;;
13793;SDS011;31160;49.500;7.772;2024-01-30T13:50:06;6.27;;;3.60;;
13793;SDS011;31160;49.500;7.772;2024-01-30T13:52:34;7.37;;;3.67;;
13793;SDS011;31160;49.500;7.772;2024-01-30T13:55:10;6.17;;;3.47;;
13793;SDS011;31160;49.500;7.772;2024-01-30T13:57:37;7.07;;;3.60;;
13793;SDS011;31160;49.500;7.772;2024-01-30T14:00:04;7.43;;;3.87;;
13793;SDS011;31160;49.500;7.772;2024-01-30T14:02:38;6.67;;;3.60;;
13793;SDS011;31160;49.500;7.772;2024-01-30T14:05:05;6.00;;;3.80;;
13793;SDS011;31160;49.500;7.772;2024-01-30T14:07:32;5.93;;;4.17;;
13793;SDS011;31160;49.500;7.772;2024-01-30T14:09:59;5.13;;;3.77;;
13793;SDS011;31160;49.500;7.772;2024-01-30T14:12:26;8.47;;;3.63;;
13793;SDS011;31160;49.500;7.772;2024-01-30T14:14:53;5.20;;;3.40;;
13793;SDS011;31160;49.500;7.772;2024-01-30T14:17:20;7.70;;;3.70;;
13793;SDS011;31160;49.500;7.772;2024-01-30T14:19:46;6.50;;;4.27;;
13793;SDS011;31160;49.500;7.772;2024-01-30T14:22:13;5.17;;;3.93;;
13793;SDS011;31160;49.500;7.772;2024-01-30T14:24:43;8.37;;;4.63;;
13793;SDS011;31160;49.500;7.772;2024-01-30T14:27:10;6.40;;;3.97;;
13793;SDS011;31160;49.500;7.772;2024-01-30T14:29:36;7.23;;;4.60;;
13793;SDS011;31160;49.500;7.772;2024-01-30T14:32:04;7.63;;;4.40;;
13793;SDS011;31160;49.500;7.772;2024-01-30T14:34:31;7.70;;;4.20;;
13793;SDS011;31160;49.500;7.772;2024-01-30T14:36:58;7.67;;;3.87;;
13793;SDS011;31160;49.500;7.772;2024-01-30T14:39:25;6.83;;;3.80;;